N6725T EDFC-LFKJ
Flight info
| Callsign | N6725T |
|---|---|
| Flight time | N/A |
| Altitude | 18000 |
| Route | OMOGI DCT TITIX/N0226F170 N850 ODINA DCT ERTEV DCT TORTU |
| Aircraft | B58T/L-SDFGRY/C |
Departure
| Time | 2026-05-06 17:31 |
|---|---|
| Airport | Aschaffenburg Airfield (EDFC) |
Arrival
| Time | N/A |
|---|---|
| Airport | Ajaccio Napoléon Bonaparte airport (LFKJ) |
| Time | Latitude | Longitude | Altitude | Speed | Heading |
|---|---|---|---|---|---|
| 2026-05-06 17:23 | 49.93891 | 9.05646 | 417 ft | 0 kts | 55° |
| 2026-05-06 17:26 | 49.93877 | 9.05685 | 418 ft | 9 kts | 136° |
| 2026-05-06 17:27 | 49.93877 | 9.05802 | 415 ft | 15 kts | 78° |
| 2026-05-06 17:27 | 49.93905 | 9.05994 | 420 ft | 21 kts | 84° |
| 2026-05-06 17:27 | 49.93935 | 9.06241 | 416 ft | 24 kts | 79° |
| 2026-05-06 17:27 | 49.93968 | 9.06487 | 419 ft | 22 kts | 80° |
| 2026-05-06 17:28 | 49.93997 | 9.06711 | 419 ft | 19 kts | 78° |
| 2026-05-06 17:28 | 49.93994 | 9.06794 | 419 ft | 4 kts | 173° |
| 2026-05-06 17:30 | 49.93982 | 9.06797 | 417 ft | 8 kts | 168° |
| 2026-05-06 17:30 | 49.93957 | 9.06787 | 418 ft | 0 kts | 259° |
| 2026-05-06 17:30 | 49.93926 | 9.06525 | 418 ft | 69 kts | 258° |
| 2026-05-06 17:30 | 49.93790 | 9.05473 | 491 ft | 121 kts | 262° |
| 2026-05-06 17:31 | 49.93920 | 9.04195 | 941 ft | 123 kts | 307° |
| 2026-05-06 17:31 | 49.94462 | 9.03168 | 1357 ft | 128 kts | 274° |
| 2026-05-06 17:31 | 49.93894 | 9.02239 | 1712 ft | 140 kts | 190° |
| 2026-05-06 17:31 | 49.92928 | 9.02259 | 2136 ft | 143 kts | 179° |
| 2026-05-06 17:32 | 49.91917 | 9.02516 | 2393 ft | 154 kts | 171° |
| 2026-05-06 17:32 | 49.90765 | 9.02804 | 2246 ft | 175 kts | 184° |
| 2026-05-06 17:32 | 49.89543 | 9.02660 | 2170 ft | 176 kts | 190° |
| 2026-05-06 17:32 | 49.88333 | 9.02417 | 2125 ft | 174 kts | 191° |
| 2026-05-06 17:33 | 49.87146 | 9.02198 | 2230 ft | 169 kts | 191° |
| 2026-05-06 17:33 | 49.86004 | 9.01997 | 2355 ft | 166 kts | 190° |
| 2026-05-06 17:33 | 49.84873 | 9.01809 | 2467 ft | 162 kts | 191° |
| 2026-05-06 17:33 | 49.83767 | 9.01638 | 2577 ft | 158 kts | 190° |
| 2026-05-06 17:34 | 49.82683 | 9.01464 | 2710 ft | 155 kts | 191° |
| 2026-05-06 17:34 | 49.81613 | 9.01262 | 2843 ft | 155 kts | 190° |
| 2026-05-06 17:34 | 49.80535 | 9.01127 | 2977 ft | 158 kts | 189° |
| 2026-05-06 17:34 | 49.79417 | 9.00982 | 2991 ft | 164 kts | 189° |
| 2026-05-06 17:35 | 49.78272 | 9.00814 | 2995 ft | 166 kts | 190° |
| 2026-05-06 17:35 | 49.77114 | 9.00638 | 3001 ft | 168 kts | 190° |
| 2026-05-06 17:35 | 49.75941 | 9.00459 | 3005 ft | 170 kts | 190° |
| 2026-05-06 17:36 | 49.73567 | 9.00103 | 3008 ft | 173 kts | 190° |
| 2026-05-06 17:36 | 49.72399 | 8.99931 | 3218 ft | 163 kts | 190° |
| 2026-05-06 17:36 | 49.71303 | 8.99773 | 3475 ft | 154 kts | 190° |
| 2026-05-06 17:36 | 49.70245 | 8.99608 | 3736 ft | 150 kts | 192° |
| 2026-05-06 17:37 | 49.69225 | 8.99436 | 3974 ft | 146 kts | 191° |
| 2026-05-06 17:37 | 49.68234 | 8.99314 | 4214 ft | 143 kts | 191° |
| 2026-05-06 17:37 | 49.67259 | 8.99183 | 4459 ft | 139 kts | 192° |
| 2026-05-06 17:37 | 49.66305 | 8.99042 | 4720 ft | 137 kts | 191° |
| 2026-05-06 17:38 | 49.65366 | 8.98857 | 4972 ft | 134 kts | 197° |
| 2026-05-06 17:38 | 49.64464 | 8.98543 | 5220 ft | 132 kts | 198° |
| 2026-05-06 17:38 | 49.63568 | 8.98232 | 5479 ft | 132 kts | 198° |
| 2026-05-06 17:38 | 49.62674 | 8.97930 | 5739 ft | 131 kts | 198° |
| 2026-05-06 17:39 | 49.61778 | 8.97623 | 6004 ft | 131 kts | 198° |
| 2026-05-06 17:39 | 49.60880 | 8.97318 | 6271 ft | 135 kts | 198° |
| 2026-05-06 17:39 | 49.59936 | 8.96990 | 6521 ft | 142 kts | 198° |
| 2026-05-06 17:39 | 49.58951 | 8.96648 | 6774 ft | 148 kts | 197° |
| 2026-05-06 17:40 | 49.58277 | 8.96416 | 6937 ft | 151 kts | 197° |
| 2026-05-06 17:40 | 49.57241 | 8.96064 | 7179 ft | 154 kts | 197° |
| 2026-05-06 17:40 | 49.56188 | 8.95706 | 7421 ft | 156 kts | 196° |
| 2026-05-06 17:40 | 49.55121 | 8.95349 | 7667 ft | 158 kts | 196° |
| 2026-05-06 17:41 | 49.54050 | 8.94985 | 7910 ft | 158 kts | 196° |
| 2026-05-06 17:41 | 49.52976 | 8.94617 | 8166 ft | 158 kts | 196° |
| 2026-05-06 17:41 | 49.51896 | 8.94250 | 8420 ft | 159 kts | 196° |
| 2026-05-06 17:41 | 49.50814 | 8.93883 | 8669 ft | 159 kts | 195° |
| 2026-05-06 17:42 | 49.49732 | 8.93515 | 8942 ft | 160 kts | 196° |
| 2026-05-06 17:42 | 49.48646 | 8.93147 | 9199 ft | 160 kts | 195° |
| 2026-05-06 17:42 | 49.47556 | 8.92777 | 9471 ft | 160 kts | 195° |
| 2026-05-06 17:42 | 49.46465 | 8.92408 | 9737 ft | 161 kts | 195° |
| 2026-05-06 17:43 | 49.45367 | 8.92035 | 9980 ft | 162 kts | 195° |
| 2026-05-06 17:43 | 49.44264 | 8.91663 | 10225 ft | 163 kts | 195° |
| 2026-05-06 17:43 | 49.43155 | 8.91288 | 10468 ft | 164 kts | 195° |
| 2026-05-06 17:43 | 49.42038 | 8.90906 | 10716 ft | 165 kts | 195° |
| 2026-05-06 17:44 | 49.40933 | 8.90530 | 10960 ft | 165 kts | 195° |
| 2026-05-06 17:44 | 49.39792 | 8.90145 | 11214 ft | 166 kts | 195° |
| 2026-05-06 17:44 | 49.38676 | 8.89770 | 11459 ft | 167 kts | 194° |
| 2026-05-06 17:44 | 49.37540 | 8.89388 | 11717 ft | 167 kts | 195° |
| 2026-05-06 17:45 | 49.36401 | 8.89003 | 11969 ft | 168 kts | 194° |
| 2026-05-06 17:45 | 49.35258 | 8.88615 | 12227 ft | 168 kts | 195° |
| 2026-05-06 17:45 | 49.34116 | 8.88230 | 12486 ft | 168 kts | 194° |
| 2026-05-06 17:45 | 49.32970 | 8.87843 | 12749 ft | 169 kts | 194° |
| 2026-05-06 17:46 | 49.31815 | 8.87454 | 13011 ft | 170 kts | 194° |
| 2026-05-06 17:46 | 49.30663 | 8.87067 | 13278 ft | 170 kts | 194° |
| 2026-05-06 17:46 | 49.29505 | 8.86677 | 13553 ft | 171 kts | 194° |
| 2026-05-06 17:46 | 49.28340 | 8.86287 | 13804 ft | 171 kts | 194° |
| 2026-05-06 17:47 | 49.27173 | 8.85895 | 14039 ft | 172 kts | 194° |
| 2026-05-06 17:47 | 49.26006 | 8.85499 | 14281 ft | 172 kts | 194° |
| 2026-05-06 17:47 | 49.24835 | 8.85103 | 14526 ft | 173 kts | 193° |
| 2026-05-06 17:47 | 49.23659 | 8.84707 | 14773 ft | 173 kts | 193° |
| 2026-05-06 17:48 | 49.22480 | 8.84310 | 15015 ft | 174 kts | 193° |
| 2026-05-06 17:48 | 49.21297 | 8.83913 | 15262 ft | 174 kts | 193° |
| 2026-05-06 17:48 | 49.20131 | 8.83525 | 15514 ft | 174 kts | 193° |
| 2026-05-06 17:48 | 49.18952 | 8.83130 | 15762 ft | 173 kts | 194° |
| 2026-05-06 17:49 | 49.17771 | 8.82732 | 16014 ft | 173 kts | 193° |
| 2026-05-06 17:49 | 49.16593 | 8.82338 | 16276 ft | 173 kts | 193° |
| 2026-05-06 17:49 | 49.15413 | 8.81944 | 16535 ft | 173 kts | 193° |
| 2026-05-06 17:49 | 49.14233 | 8.81550 | 16800 ft | 174 kts | 193° |
| 2026-05-06 17:50 | 49.13047 | 8.81153 | 17065 ft | 174 kts | 193° |
| 2026-05-06 17:50 | 49.11860 | 8.80755 | 17334 ft | 175 kts | 193° |
| 2026-05-06 17:50 | 49.10667 | 8.80354 | 17606 ft | 176 kts | 193° |
| 2026-05-06 17:50 | 49.09462 | 8.79951 | 17780 ft | 182 kts | 193° |
| 2026-05-06 17:51 | 49.08187 | 8.79526 | 17804 ft | 193 kts | 193° |
| 2026-05-06 17:51 | 49.06847 | 8.79076 | 17817 ft | 201 kts | 193° |
| 2026-05-06 17:51 | 49.05463 | 8.78613 | 17816 ft | 206 kts | 193° |
| 2026-05-06 17:51 | 49.04057 | 8.78145 | 17817 ft | 207 kts | 193° |
| 2026-05-06 17:52 | 49.02644 | 8.77675 | 17820 ft | 209 kts | 192° |
| 2026-05-06 17:52 | 49.01219 | 8.77201 | 17813 ft | 210 kts | 192° |
| 2026-05-06 17:52 | 48.99790 | 8.76725 | 17816 ft | 210 kts | 192° |
| 2026-05-06 17:52 | 48.98363 | 8.76250 | 17812 ft | 210 kts | 192° |
| 2026-05-06 17:53 | 48.96934 | 8.75774 | 17821 ft | 211 kts | 192° |
| 2026-05-06 17:53 | 48.95500 | 8.75296 | 17815 ft | 211 kts | 192° |
| 2026-05-06 17:53 | 48.94063 | 8.74820 | 17824 ft | 210 kts | 192° |
| 2026-05-06 17:53 | 48.92644 | 8.74349 | 17822 ft | 210 kts | 192° |
| 2026-05-06 17:54 | 48.91215 | 8.73874 | 17826 ft | 211 kts | 192° |
| 2026-05-06 17:54 | 48.89779 | 8.73400 | 17822 ft | 211 kts | 192° |
| 2026-05-06 17:54 | 48.88338 | 8.72923 | 17823 ft | 212 kts | 192° |
| 2026-05-06 17:54 | 48.86896 | 8.72443 | 17832 ft | 213 kts | 192° |
| 2026-05-06 17:55 | 48.85467 | 8.71970 | 17829 ft | 213 kts | 192° |
| 2026-05-06 17:55 | 48.84017 | 8.71490 | 17827 ft | 213 kts | 192° |
| 2026-05-06 17:55 | 48.82567 | 8.71011 | 17832 ft | 214 kts | 192° |
| 2026-05-06 17:55 | 48.81112 | 8.70532 | 17832 ft | 214 kts | 192° |
| 2026-05-06 17:56 | 48.79659 | 8.70053 | 17833 ft | 214 kts | 192° |
| 2026-05-06 17:56 | 48.78206 | 8.69573 | 17832 ft | 214 kts | 192° |
| 2026-05-06 17:56 | 48.76748 | 8.69091 | 17839 ft | 214 kts | 192° |
| 2026-05-06 17:56 | 48.75294 | 8.68612 | 17840 ft | 214 kts | 192° |
| 2026-05-06 17:57 | 48.73837 | 8.68131 | 17841 ft | 214 kts | 192° |
| 2026-05-06 17:57 | 48.72376 | 8.67651 | 17837 ft | 214 kts | 192° |
| 2026-05-06 17:57 | 48.70920 | 8.67172 | 17841 ft | 214 kts | 192° |
| 2026-05-06 17:57 | 48.69460 | 8.66692 | 17843 ft | 214 kts | 192° |
| 2026-05-06 17:58 | 48.68003 | 8.66214 | 17841 ft | 215 kts | 192° |
| 2026-05-06 17:58 | 48.66541 | 8.65735 | 17844 ft | 214 kts | 192° |
| 2026-05-06 17:58 | 48.65086 | 8.65256 | 17842 ft | 214 kts | 193° |
| 2026-05-06 17:58 | 48.63648 | 8.64785 | 17849 ft | 214 kts | 193° |
| 2026-05-06 17:59 | 48.62194 | 8.64310 | 17848 ft | 214 kts | 193° |
| 2026-05-06 17:59 | 48.60740 | 8.63834 | 17848 ft | 214 kts | 193° |
| 2026-05-06 17:59 | 48.59287 | 8.63358 | 17845 ft | 214 kts | 193° |
| 2026-05-06 17:59 | 48.57829 | 8.62879 | 17864 ft | 214 kts | 193° |
| 2026-05-06 18:00 | 48.56370 | 8.62401 | 17859 ft | 215 kts | 193° |
| 2026-05-06 18:00 | 48.54908 | 8.61923 | 17848 ft | 215 kts | 193° |
| 2026-05-06 18:00 | 48.53444 | 8.61445 | 17848 ft | 215 kts | 193° |
| 2026-05-06 18:00 | 48.51984 | 8.60968 | 17853 ft | 214 kts | 193° |
| 2026-05-06 18:01 | 48.50532 | 8.60495 | 17852 ft | 213 kts | 193° |
| 2026-05-06 18:01 | 48.49086 | 8.60024 | 17858 ft | 212 kts | 193° |
| 2026-05-06 18:01 | 48.47643 | 8.59553 | 17865 ft | 212 kts | 193° |
| 2026-05-06 18:01 | 48.46199 | 8.59084 | 17861 ft | 212 kts | 193° |
| 2026-05-06 18:02 | 48.44774 | 8.58621 | 17863 ft | 212 kts | 193° |
| 2026-05-06 18:02 | 48.43329 | 8.58151 | 17865 ft | 212 kts | 193° |
| 2026-05-06 18:02 | 48.41883 | 8.57680 | 17862 ft | 212 kts | 193° |
| 2026-05-06 18:02 | 48.40438 | 8.57211 | 17859 ft | 212 kts | 193° |
| 2026-05-06 18:03 | 48.38995 | 8.56742 | 17861 ft | 212 kts | 193° |
| 2026-05-06 18:03 | 48.37549 | 8.56273 | 17865 ft | 213 kts | 193° |
| 2026-05-06 18:03 | 48.36100 | 8.55803 | 17865 ft | 213 kts | 193° |
| 2026-05-06 18:03 | 48.34652 | 8.55333 | 17868 ft | 213 kts | 193° |
| 2026-05-06 18:04 | 48.33201 | 8.54863 | 17862 ft | 213 kts | 193° |
| 2026-05-06 18:04 | 48.31750 | 8.54393 | 17870 ft | 213 kts | 193° |
| 2026-05-06 18:04 | 48.30301 | 8.53924 | 17867 ft | 213 kts | 193° |
| 2026-05-06 18:04 | 48.28850 | 8.53455 | 17866 ft | 213 kts | 193° |
| 2026-05-06 18:05 | 48.27415 | 8.52991 | 17870 ft | 213 kts | 193° |
| 2026-05-06 18:05 | 48.25963 | 8.52522 | 17865 ft | 213 kts | 193° |
| 2026-05-06 18:05 | 48.24516 | 8.52055 | 17869 ft | 213 kts | 193° |
| 2026-05-06 18:05 | 48.23064 | 8.51587 | 17867 ft | 213 kts | 193° |
| 2026-05-06 18:06 | 48.21617 | 8.51120 | 17873 ft | 213 kts | 193° |
| 2026-05-06 18:06 | 48.20170 | 8.50653 | 17874 ft | 213 kts | 193° |
| 2026-05-06 18:06 | 48.18722 | 8.50187 | 17871 ft | 213 kts | 193° |
| 2026-05-06 18:06 | 48.17276 | 8.49721 | 17872 ft | 213 kts | 193° |
| 2026-05-06 18:07 | 48.15828 | 8.49255 | 17873 ft | 212 kts | 193° |
| 2026-05-06 18:07 | 48.14382 | 8.48790 | 17869 ft | 212 kts | 193° |
| 2026-05-06 18:07 | 48.12937 | 8.48326 | 17870 ft | 212 kts | 193° |
| 2026-05-06 18:07 | 48.11498 | 8.47864 | 17876 ft | 211 kts | 193° |
| 2026-05-06 18:08 | 48.10059 | 8.47403 | 17883 ft | 211 kts | 193° |
| 2026-05-06 18:08 | 48.08640 | 8.46947 | 17877 ft | 211 kts | 193° |
| 2026-05-06 18:08 | 48.07207 | 8.46488 | 17877 ft | 211 kts | 193° |
| 2026-05-06 18:08 | 48.05772 | 8.46028 | 17883 ft | 211 kts | 193° |
| 2026-05-06 18:09 | 48.04334 | 8.45568 | 17877 ft | 211 kts | 193° |
| 2026-05-06 18:09 | 48.02902 | 8.45109 | 17880 ft | 211 kts | 193° |
| 2026-05-06 18:09 | 48.01469 | 8.44651 | 17883 ft | 211 kts | 193° |
| 2026-05-06 18:09 | 48.00034 | 8.44192 | 17884 ft | 210 kts | 193° |
| 2026-05-06 18:10 | 47.98600 | 8.43735 | 17885 ft | 211 kts | 193° |
| 2026-05-06 18:10 | 47.97168 | 8.43277 | 17886 ft | 211 kts | 193° |
| 2026-05-06 18:10 | 47.95734 | 8.42819 | 17884 ft | 211 kts | 193° |
| 2026-05-06 18:10 | 47.94300 | 8.42361 | 17880 ft | 211 kts | 193° |
| 2026-05-06 18:11 | 47.92865 | 8.41905 | 17885 ft | 211 kts | 193° |
| 2026-05-06 18:11 | 47.91431 | 8.41448 | 17881 ft | 211 kts | 193° |
| 2026-05-06 18:11 | 47.89993 | 8.40989 | 17889 ft | 211 kts | 193° |
| 2026-05-06 18:11 | 47.88647 | 8.40561 | 17889 ft | 211 kts | 193° |
| 2026-05-06 18:12 | 47.87210 | 8.40104 | 17892 ft | 211 kts | 193° |
| 2026-05-06 18:12 | 47.85754 | 8.39799 | 17888 ft | 212 kts | 183° |
| 2026-05-06 18:12 | 47.84279 | 8.40061 | 17891 ft | 215 kts | 172° |
| 2026-05-06 18:12 | 47.82811 | 8.40453 | 17891 ft | 214 kts | 173° |
| 2026-05-06 18:13 | 47.81340 | 8.40798 | 17891 ft | 214 kts | 174° |
| 2026-05-06 18:13 | 47.79862 | 8.41134 | 17896 ft | 215 kts | 174° |
| 2026-05-06 18:13 | 47.78406 | 8.41468 | 17897 ft | 215 kts | 174° |
| 2026-05-06 18:13 | 47.76931 | 8.41811 | 17894 ft | 215 kts | 174° |
| 2026-05-06 18:14 | 47.75451 | 8.42158 | 17897 ft | 215 kts | 174° |
| 2026-05-06 18:14 | 47.73976 | 8.42507 | 17897 ft | 215 kts | 174° |
| 2026-05-06 18:14 | 47.72501 | 8.42857 | 17904 ft | 215 kts | 174° |
| 2026-05-06 18:14 | 47.71027 | 8.43207 | 17900 ft | 215 kts | 174° |
| 2026-05-06 18:15 | 47.69548 | 8.43559 | 17903 ft | 215 kts | 174° |
| 2026-05-06 18:15 | 47.68072 | 8.43899 | 17903 ft | 215 kts | 175° |